Time;durP1;ratioP1;P1;durP2;ratioP2;P2;SDS_P1;SDS_P2;PMS_P1;PMS_P2;Temp;Humidity;BMP_temperature;BMP_pressure;BME280_temperature;BME280_humidity;BME280_pressure;Samples;Min_cycle;Max_cycle;Signal;HPM_P1;HPM_P2
2021/01/08 00:00:17;;;;;;;21.50;14.20;;;8.30;68.00;;;;;;4996955;28;20026;-71
2021/01/08 00:02:43;;;;;;;19.65;14.95;;;8.20;67.30;;;;;;4997337;28;20057;-71
2021/01/08 00:05:10;;;;;;;19.95;15.13;;;8.20;67.40;;;;;;4997076;28;20034;-69
2021/01/08 00:07:36;;;;;;;18.92;15.50;;;8.10;68.00;;;;;;4996928;28;20030;-71
2021/01/08 00:10:04;;;;;;;20.20;15.38;;;8.10;67.90;;;;;;4996837;28;20411;-75
2021/01/08 00:12:34;;;;;;;19.30;15.45;;;8.00;68.10;;;;;;4996462;28;20042;-72
2021/01/08 00:15:00;;;;;;;21.50;15.32;;;8.00;67.80;;;;;;4996827;28;20084;-72
2021/01/08 00:17:29;;;;;;;20.25;15.57;;;8.00;68.50;;;;;;4996919;28;20357;-66
2021/01/08 00:19:55;;;;;;;18.30;14.45;;;8.00;68.30;;;;;;4996676;28;20106;-71
2021/01/08 00:22:21;;;;;;;17.45;14.18;;;8.00;68.40;;;;;;4996789;28;20026;-72
2021/01/08 00:24:47;;;;;;;19.15;14.35;;;7.90;68.60;;;;;;4996581;28;20046;-68
2021/01/08 00:27:13;;;;;;;19.52;14.30;;;7.90;68.20;;;;;;4996826;28;20553;-73
2021/01/08 00:29:39;;;;;;;17.98;13.55;;;8.00;68.50;;;;;;4996516;28;20061;-74
2021/01/08 00:32:05;;;;;;;20.02;15.00;;;8.00;68.60;;;;;;4996773;28;20470;-67
2021/01/08 00:34:30;;;;;;;20.10;13.65;;;8.10;68.40;;;;;;4996373;28;20034;-68
2021/01/08 00:36:57;;;;;;;18.75;13.07;;;8.10;68.30;;;;;;4996508;28;20018;-68
2021/01/08 00:39:24;;;;;;;18.40;12.85;;;8.00;68.20;;;;;;4996282;28;20026;-75
2021/01/08 00:41:50;;;;;;;19.55;13.65;;;8.00;68.30;;;;;;4996393;28;20101;-67
2021/01/08 00:44:16;;;;;;;16.98;13.10;;;8.10;68.40;;;;;;4996059;28;20552;-68
2021/01/08 00:46:46;;;;;;;19.05;12.98;;;8.20;68.30;;;;;;4996134;28;20177;-68
2021/01/08 00:49:13;;;;;;;19.25;13.52;;;8.20;68.10;;;;;;4996096;28;20472;-67
2021/01/08 00:51:39;;;;;;;16.25;12.50;;;8.30;67.90;;;;;;4996105;28;20026;-67
2021/01/08 00:54:06;;;;;;;19.05;12.23;;;8.30;67.70;;;;;;4995868;28;20030;-70
2021/01/08 00:56:32;;;;;;;16.80;12.52;;;8.30;67.60;;;;;;4996012;28;20054;-67
2021/01/08 00:58:58;;;;;;;17.80;12.25;;;8.30;67.40;;;;;;4995748;28;20026;-71
2021/01/08 01:01:24;;;;;;;17.05;12.73;;;8.30;67.20;;;;;;4996135;28;20054;-70
2021/01/08 01:03:50;;;;;;;16.75;12.32;;;8.30;67.50;;;;;;4995797;28;20034;-70
2021/01/08 01:06:27;;;;;;;18.45;12.68;;;8.20;67.40;;;;;;4995762;28;20442;-67
2021/01/08 01:08:54;;;;;;;15.90;11.93;;;8.30;67.40;;;;;;4996127;28;20353;-67
2021/01/08 01:11:21;;;;;;;18.40;12.15;;;8.30;67.30;;;;;;4996164;28;20136;-70
2021/01/08 01:13:49;;;;;;;16.17;12.05;;;8.30;67.10;;;;;;4996073;28;20037;-72
2021/01/08 01:16:16;;;;;;;15.77;12.00;;;8.30;67.20;;;;;;4995949;28;20037;-75
2021/01/08 01:18:43;;;;;;;17.38;11.32;;;8.20;67.00;;;;;;4995972;28;20027;-71
2021/01/08 01:21:10;;;;;;;16.25;11.38;;;8.20;66.80;;;;;;4995685;28;20070;-68
2021/01/08 01:23:36;;;;;;;16.65;12.15;;;8.20;66.70;;;;;;4995630;28;20375;-74
2021/01/08 01:26:02;;;;;;;17.25;11.77;;;8.20;66.70;;;;;;4995298;28;20026;-73
2021/01/08 01:28:28;;;;;;;14.90;11.35;;;8.20;66.80;;;;;;4995547;28;20034;-74
2021/01/08 01:30:53;;;;;;;15.20;11.60;;;8.30;67.00;;;;;;4995397;28;20034;-72
2021/01/08 01:33:19;;;;;;;15.63;10.70;;;8.20;66.60;;;;;;4995491;28;20393;-75
2021/01/08 01:35:45;;;;;;;14.23;11.30;;;8.20;66.90;;;;;;4995344;28;20105;-72
2021/01/08 01:38:10;;;;;;;15.65;11.25;;;8.30;67.00;;;;;;4994887;28;20420;-67
2021/01/08 01:40:36;;;;;;;15.43;11.23;;;8.30;67.00;;;;;;4994953;28;20027;-73
2021/01/08 01:43:02;;;;;;;15.27;11.68;;;8.30;66.60;;;;;;4995128;28;20495;-70
2021/01/08 01:45:27;;;;;;;15.32;11.00;;;8.30;66.70;;;;;;4994963;28;20034;-73
2021/01/08 01:47:53;;;;;;;17.02;11.88;;;8.30;66.70;;;;;;4995292;28;20109;-68
2021/01/08 01:50:19;;;;;;;16.42;11.45;;;8.20;66.60;;;;;;4994974;28;20031;-72
2021/01/08 01:52:46;;;;;;;15.88;10.98;;;8.20;66.80;;;;;;4994958;28;20022;-74
2021/01/08 01:55:14;;;;;;;14.07;10.80;;;8.10;66.90;;;;;;4994881;28;20064;-70
2021/01/08 01:57:41;;;;;;;15.30;11.50;;;8.20;66.90;;;;;;4994943;28;20050;-70
2021/01/08 02:00:08;;;;;;;18.40;11.52;;;8.10;67.10;;;;;;4994935;28;20084;-74
2021/01/08 02:02:40;;;;;;;13.00;10.35;;;8.00;67.10;;;;;;4994964;28;20030;-71
2021/01/08 02:05:08;;;;;;;16.92;11.02;;;8.00;67.50;;;;;;4993380;28;20093;-73
2021/01/08 02:07:45;;;;;;;14.88;10.82;;;8.10;67.20;;;;;;4995462;28;20069;-72
2021/01/08 02:10:11;;;;;;;15.63;11.05;;;8.10;67.00;;;;;;4994801;28;20054;-71
2021/01/08 02:12:38;;;;;;;17.10;10.43;;;8.20;66.90;;;;;;4994444;28;20054;-72
2021/01/08 02:15:06;;;;;;;13.85;10.57;;;8.30;66.50;;;;;;4994527;28;20033;-69
2021/01/08 02:17:32;;;;;;;13.68;10.02;;;8.30;67.00;;;;;;4994694;28;20025;-71
2021/01/08 02:20:06;;;;;;;16.50;11.18;;;8.20;66.70;;;;;;4994377;28;20038;-74
2021/01/08 02:22:50;;;;;;;17.15;10.98;;;8.30;66.80;;;;;;4994337;28;20030;-70
2021/01/08 02:25:23;;;;;;;14.00;11.15;;;8.30;66.70;;;;;;4994200;28;20388;-71
2021/01/08 02:28:16;;;;;;;16.80;11.05;;;8.30;66.20;;;;;;4994485;28;20104;-70
2021/01/08 02:30:44;;;;;;;15.20;10.82;;;8.20;66.70;;;;;;4994178;28;20045;-71
2021/01/08 02:33:10;;;;;;;14.88;10.73;;;8.20;66.60;;;;;;4994171;28;20068;-71
2021/01/08 02:35:36;;;;;;;13.80;10.35;;;8.20;66.50;;;;;;4993363;28;20023;-71
2021/01/08 02:38:02;;;;;;;13.90;10.60;;;8.10;66.20;;;;;;4994170;28;20101;-69
2021/01/08 02:40:28;;;;;;;13.38;10.52;;;8.10;66.30;;;;;;4992895;28;20388;-67
2021/01/08 02:43:06;;;;;;;14.20;10.50;;;8.10;66.40;;;;;;4994350;28;20452;-72
2021/01/08 02:45:33;;;;;;;14.35;10.88;;;8.20;66.40;;;;;;4994002;28;20036;-71
2021/01/08 02:47:59;;;;;;;14.38;10.68;;;8.10;66.30;;;;;;4994364;28;20069;-71
2021/01/08 02:50:25;;;;;;;14.05;10.52;;;8.20;66.70;;;;;;4994126;28;20033;-68
2021/01/08 02:52:58;;;;;;;13.75;10.77;;;8.10;66.30;;;;;;4992866;28;20026;-71
2021/01/08 02:55:31;;;;;;;13.00;10.57;;;8.10;66.50;;;;;;4993851;28;20050;-74
2021/01/08 02:58:02;;;;;;;15.18;11.02;;;8.20;66.80;;;;;;4993976;28;20019;-74
2021/01/08 03:00:29;;;;;;;15.65;11.45;;;8.20;66.40;;;;;;4993906;28;20442;-72
2021/01/08 03:02:56;;;;;;;15.52;10.77;;;8.30;66.50;;;;;;4994017;28;20030;-72
2021/01/08 03:05:22;;;;;;;14.32;10.80;;;8.30;66.30;;;;;;4993999;28;20100;-70
2021/01/08 03:07:49;;;;;;;14.55;10.95;;;8.30;66.30;;;;;;4992694;28;20022;-71
2021/01/08 03:10:16;;;;;;;15.43;10.90;;;8.30;66.30;;;;;;4993956;28;20105;-67
2021/01/08 03:12:50;;;;;;;14.90;10.38;;;8.40;66.10;;;;;;4993457;28;20089;-69
2021/01/08 03:15:16;;;;;;;15.05;11.43;;;8.40;65.90;;;;;;4992424;28;20080;-68
2021/01/08 03:17:42;;;;;;;16.15;10.82;;;8.30;66.10;;;;;;4996700;28;20027;-66
2021/01/08 03:20:08;;;;;;;16.13;11.90;;;8.20;66.20;;;;;;4997862;28;20030;-68
2021/01/08 03:22:34;;;;;;;14.43;11.55;;;8.20;66.40;;;;;;4997542;28;20023;-67
2021/01/08 03:24:59;;;;;;;15.73;11.40;;;8.20;66.30;;;;;;4997910;28;20034;-66
2021/01/08 03:27:25;;;;;;;15.05;11.50;;;8.20;66.50;;;;;;4997651;28;20022;-68
2021/01/08 03:29:50;;;;;;;15.93;11.45;;;8.20;66.60;;;;;;4997765;28;20030;-67
2021/01/08 03:32:16;;;;;;;18.80;11.18;;;8.20;66.60;;;;;;4997631;28;20468;-66
2021/01/08 03:34:42;;;;;;;14.35;10.45;;;8.20;66.50;;;;;;4997855;28;20077;-67
2021/01/08 03:37:07;;;;;;;14.75;10.30;;;8.20;66.70;;;;;;4997759;28;20019;-66
2021/01/08 03:39:33;;;;;;;16.65;11.60;;;8.30;66.50;;;;;;4997699;28;20476;-74
2021/01/08 03:41:59;;;;;;;15.00;12.00;;;8.30;66.30;;;;;;4997667;28;20030;-76
2021/01/08 03:44:24;;;;;;;15.57;11.02;;;8.20;66.30;;;;;;5012571;28;20089;-72
2021/01/08 03:46:50;;;;;;;13.32;10.70;;;8.20;66.40;;;;;;4997632;28;20019;-75
2021/01/08 03:49:16;;;;;;;14.35;10.52;;;8.10;66.60;;;;;;4997316;28;20022;-75
2021/01/08 03:51:41;;;;;;;16.45;11.52;;;8.20;66.70;;;;;;4997346;28;20027;-73
2021/01/08 03:54:07;;;;;;;15.65;10.82;;;8.10;66.40;;;;;;4997791;28;20026;-75
2021/01/08 03:56:32;;;;;;;16.25;11.07;;;8.10;66.50;;;;;;4997646;28;20054;-73
2021/01/08 03:58:58;;;;;;;16.52;11.45;;;8.10;66.70;;;;;;4997109;28;20357;-75
2021/01/08 04:01:24;;;;;;;16.58;12.07;;;8.10;66.40;;;;;;4997003;28;20597;-75
2021/01/08 04:03:49;;;;;;;15.13;11.20;;;8.10;66.90;;;;;;4995809;28;20105;-75
2021/01/08 04:06:15;;;;;;;14.07;11.23;;;8.20;66.70;;;;;;4996818;28;20420;-74
2021/01/08 04:08:41;;;;;;;14.77;10.38;;;8.20;66.60;;;;;;4996945;28;20034;-74
2021/01/08 04:11:06;;;;;;;13.60;10.68;;;8.10;66.60;;;;;;4996955;28;20101;-74
2021/01/08 04:13:32;;;;;;;14.43;10.13;;;8.00;66.60;;;;;;4996913;28;20037;-75
2021/01/08 04:15:58;;;;;;;14.10;10.27;;;8.10;66.80;;;;;;4996907;28;20022;-76
2021/01/08 04:18:23;;;;;;;15.52;10.50;;;8.10;66.90;;;;;;4996923;28;20034;-75
2021/01/08 04:20:49;;;;;;;15.80;10.63;;;8.20;66.60;;;;;;4996605;28;20393;-72
2021/01/08 04:23:15;;;;;;;14.02;10.52;;;8.20;66.50;;;;;;4996604;28;20124;-67
2021/01/08 04:25:41;;;;;;;14.50;10.43;;;8.20;66.30;;;;;;4996604;28;20164;-73
2021/01/08 04:28:06;;;;;;;14.02;9.93;;;8.20;66.50;;;;;;4996230;28;20022;-66
2021/01/08 04:30:32;;;;;;;14.05;9.95;;;8.10;66.50;;;;;;4996620;28;20034;-70
2021/01/08 04:32:58;;;;;;;13.75;9.43;;;8.10;66.60;;;;;;4996672;28;20076;-69
2021/01/08 04:35:23;;;;;;;15.55;10.50;;;8.00;66.60;;;;;;4996551;28;20041;-70
2021/01/08 04:37:49;;;;;;;14.48;9.85;;;8.10;66.90;;;;;;4996274;28;20026;-69
2021/01/08 04:40:15;;;;;;;13.52;9.70;;;8.00;66.60;;;;;;4996472;28;20026;-68
2021/01/08 04:42:40;;;;;;;12.85;9.90;;;8.00;67.40;;;;;;4996447;28;20475;-69
2021/01/08 04:45:07;;;;;;;16.58;10.43;;;7.90;66.80;;;;;;4996252;28;20113;-72
2021/01/08 04:47:33;;;;;;;15.73;9.60;;;8.00;67.10;;;;;;4996432;28;20030;-67
2021/01/08 04:50:03;;;;;;;14.43;10.48;;;7.90;66.90;;;;;;4995978;28;20030;-70
2021/01/08 04:52:32;;;;;;;15.02;10.45;;;7.80;67.30;;;;;;4996361;28;20097;-70
2021/01/08 04:54:58;;;;;;;14.80;10.10;;;7.90;67.30;;;;;;4996445;28;20027;-69
2021/01/08 04:57:27;;;;;;;13.13;9.63;;;7.90;67.20;;;;;;4996273;28;20443;-71
2021/01/08 04:59:53;;;;;;;15.68;9.80;;;7.90;67.40;;;;;;4996056;28;20117;-71
2021/01/08 05:02:19;;;;;;;12.73;9.88;;;8.00;67.30;;;;;;4995967;28;20022;-68
2021/01/08 05:04:45;;;;;;;12.60;9.27;;;8.00;67.20;;;;;;4995900;28;20462;-69
2021/01/08 05:07:11;;;;;;;13.45;9.60;;;8.00;67.10;;;;;;4995639;28;20033;-69
2021/01/08 05:09:36;;;;;;;14.13;10.07;;;8.10;66.90;;;;;;4995788;28;20034;-69
2021/01/08 05:12:02;;;;;;;14.80;10.20;;;8.00;67.00;;;;;;4995940;28;20050;-69
2021/01/08 05:14:28;;;;;;;12.93;9.60;;;8.00;67.30;;;;;;4995558;28;20066;-67
2021/01/08 05:16:57;;;;;;;13.80;10.15;;;8.00;67.10;;;;;;4995713;28;20038;-68
2021/01/08 05:19:26;;;;;;;16.65;10.15;;;7.90;67.20;;;;;;4995730;28;20037;-68
2021/01/08 05:21:54;;;;;;;16.25;10.05;;;8.00;67.30;;;;;;4995548;28;20026;-68
2021/01/08 05:24:24;;;;;;;13.60;9.27;;;8.00;67.30;;;;;;4994129;28;20027;-68
2021/01/08 05:26:50;;;;;;;15.18;9.82;;;8.10;67.40;;;;;;4995419;28;20069;-69
2021/01/08 05:29:16;;;;;;;13.75;9.75;;;8.10;66.90;;;;;;4995379;28;20033;-67
2021/01/08 05:31:42;;;;;;;14.65;9.70;;;8.10;66.90;;;;;;4995497;28;20344;-67
2021/01/08 05:34:09;;;;;;;12.73;9.38;;;8.10;67.00;;;;;;4995272;28;20368;-76
2021/01/08 05:36:36;;;;;;;13.38;9.55;;;8.10;67.10;;;;;;4995394;28;20022;-69
2021/01/08 05:39:05;;;;;;;11.15;8.80;;;8.10;66.70;;;;;;4994013;28;20018;-66
2021/01/08 05:41:32;;;;;;;14.55;10.27;;;8.10;67.00;;;;;;4994659;28;20204;-71
2021/01/08 05:43:59;;;;;;;15.45;9.93;;;8.00;67.20;;;;;;4994855;28;20515;-68
2021/01/08 05:46:37;;;;;;;17.48;9.85;;;8.10;67.40;;;;;;4995052;28;20030;-70
2021/01/08 05:49:07;;;;;;;14.02;10.27;;;8.00;67.30;;;;;;4994963;28;20475;-70
2021/01/08 05:51:36;;;;;;;13.10;9.10;;;8.00;67.60;;;;;;4995204;28;20034;-69
2021/01/08 05:54:03;;;;;;;15.80;9.73;;;8.00;67.50;;;;;;4995032;28;20062;-69
2021/01/08 05:56:38;;;;;;;13.25;9.43;;;8.00;67.60;;;;;;4994002;28;20026;-69
2021/01/08 05:59:05;;;;;;;14.52;9.88;;;8.10;67.70;;;;;;4995021;28;20026;-70
2021/01/08 06:01:32;;;;;;;13.80;9.48;;;8.10;67.50;;;;;;4994904;28;20026;-68
2021/01/08 06:03:59;;;;;;;13.32;8.93;;;8.10;67.20;;;;;;4994910;28;20113;-66
2021/01/08 06:06:24;;;;;;;12.00;8.73;;;8.10;67.00;;;;;;4994696;28;20034;-66
2021/01/08 06:08:59;;;;;;;12.15;8.77;;;8.20;67.00;;;;;;4994861;28;20031;-65
2021/01/08 06:11:28;;;;;;;14.30;9.10;;;8.20;67.10;;;;;;4994309;28;20069;-69
2021/01/08 06:13:56;;;;;;;14.55;9.20;;;8.30;66.80;;;;;;4994554;28;20101;-67
2021/01/08 06:16:22;;;;;;;12.27;9.10;;;8.30;67.00;;;;;;4994718;28;20038;-67
2021/01/08 06:18:50;;;;;;;14.55;9.30;;;8.40;66.90;;;;;;4994767;28;20105;-69
2021/01/08 06:21:16;;;;;;;15.73;8.75;;;8.40;66.80;;;;;;4994234;28;20525;-68
2021/01/08 06:23:50;;;;;;;15.63;9.70;;;8.50;66.60;;;;;;4994564;28;20023;-65
2021/01/08 06:26:18;;;;;;;13.02;9.30;;;8.40;66.50;;;;;;4994493;28;20038;-66
2021/01/08 06:28:44;;;;;;;11.68;8.48;;;8.40;66.80;;;;;;4994368;28;20022;-67
2021/01/08 06:31:23;;;;;;;12.95;8.50;;;8.40;66.60;;;;;;4994606;28;20156;-66
2021/01/08 06:33:53;;;;;;;11.73;8.32;;;8.40;66.80;;;;;;4994479;28;20498;-67
2021/01/08 06:36:21;;;;;;;14.25;8.77;;;8.30;66.60;;;;;;4994266;28;20033;-67
2021/01/08 06:38:50;;;;;;;12.18;9.10;;;8.30;67.40;;;;;;4994399;28;20105;-69
2021/01/08 06:41:17;;;;;;;15.05;9.60;;;8.30;66.90;;;;;;4994071;28;20084;-71
2021/01/08 06:43:48;;;;;;;16.08;9.50;;;8.30;67.00;;;;;;4994002;28;20444;-68
2021/01/08 06:46:32;;;;;;;13.85;9.27;;;8.30;66.70;;;;;;4993995;28;20522;-68
2021/01/08 06:49:00;;;;;;;14.70;9.90;;;8.40;67.10;;;;;;4994058;28;20034;-71
2021/01/08 06:51:30;;;;;;;15.25;9.50;;;8.40;67.10;;;;;;4994046;28;20072;-72
2021/01/08 06:53:58;;;;;;;14.18;9.48;;;8.40;67.00;;;;;;4994252;28;20084;-71
2021/01/08 06:56:44;;;;;;;15.07;9.05;;;8.30;66.60;;;;;;4994192;28;20034;-71
2021/01/08 06:59:16;;;;;;;13.35;9.52;;;8.30;67.20;;;;;;4994003;28;20105;-71
2021/01/08 07:01:54;;;;;;;17.65;10.23;;;8.40;67.10;;;;;;4994164;28;20393;-69
2021/01/08 07:04:29;;;;;;;18.17;9.90;;;8.40;67.20;;;;;;4994002;28;20419;-68
2021/01/08 07:06:57;;;;;;;16.38;10.93;;;8.40;67.20;;;;;;4993837;28;20038;-66
2021/01/08 07:09:37;;;;;;;14.82;10.30;;;8.40;66.80;;;;;;4993703;28;20583;-70
2021/01/08 07:12:09;;;;;;;15.65;10.25;;;8.40;67.20;;;;;;4993585;28;20089;-70
2021/01/08 07:14:35;;;;;;;14.75;9.95;;;8.50;67.00;;;;;;4993719;28;20085;-67
2021/01/08 07:17:12;;;;;;;15.13;10.25;;;8.50;66.90;;;;;;4993716;28;20049;-69
2021/01/08 07:19:44;;;;;;;13.98;9.32;;;8.40;67.00;;;;;;4993640;28;20038;-68
2021/01/08 07:22:18;;;;;;;14.00;10.52;;;8.40;67.10;;;;;;4992506;28;20105;-66
2021/01/08 07:24:46;;;;;;;16.15;9.98;;;8.50;67.00;;;;;;4993857;28;20121;-70
2021/01/08 07:27:14;;;;;;;16.38;10.43;;;8.50;67.00;;;;;;4993568;28;20089;-68
2021/01/08 07:29:41;;;;;;;18.90;10.48;;;8.50;67.00;;;;;;4993632;28;20019;-68
2021/01/08 07:32:06;;;;;;;15.27;9.80;;;8.50;67.20;;;;;;4993549;28;20030;-69
2021/01/08 07:34:34;;;;;;;15.20;9.82;;;8.60;67.30;;;;;;4993517;28;20506;-69
2021/01/08 07:37:00;;;;;;;13.95;10.25;;;8.60;67.20;;;;;;4993773;28;20427;-70
2021/01/08 07:39:38;;;;;;;17.85;9.93;;;8.60;67.20;;;;;;4993296;28;20027;-73
2021/01/08 07:42:33;;;;;;;15.02;10.07;;;8.60;67.20;;;;;;4993589;28;20022;-76
2021/01/08 07:45:00;;;;;;;15.98;10.63;;;8.60;67.20;;;;;;4993690;28;20125;-69
2021/01/08 07:47:29;;;;;;;22.73;11.45;;;8.70;67.10;;;;;;4993515;28;20061;-68
2021/01/08 07:50:12;;;;;;;22.48;11.93;;;8.70;66.80;;;;;;4993166;28;20451;-67
2021/01/08 07:52:42;;;;;;;16.85;11.43;;;8.70;66.80;;;;;;4993890;28;20026;-69
2021/01/08 07:55:09;;;;;;;15.27;11.25;;;8.70;66.80;;;;;;4993406;28;20546;-67
2021/01/08 07:58:04;;;;;;;17.38;10.90;;;8.80;66.70;;;;;;4993640;28;20098;-71
2021/01/08 08:00:31;;;;;;;19.33;11.57;;;8.70;66.70;;;;;;4992656;28;20037;-69
2021/01/08 08:02:58;;;;;;;16.45;11.63;;;8.70;66.30;;;;;;4993600;28;20030;-71
2021/01/08 08:05:33;;;;;;;19.60;13.02;;;8.70;66.80;;;;;;4996788;28;20034;-66
2021/01/08 08:08:03;;;;;;;17.83;12.30;;;8.70;66.80;;;;;;4997090;28;20026;-67
2021/01/08 08:10:30;;;;;;;19.35;12.73;;;8.70;66.70;;;;;;4997216;28;20072;-69
2021/01/08 08:12:57;;;;;;;21.27;12.80;;;8.70;66.80;;;;;;4997089;28;20030;-74
2021/01/08 08:15:23;;;;;;;15.63;10.98;;;8.70;66.70;;;;;;4997381;28;20042;-74
2021/01/08 08:17:49;;;;;;;22.77;11.25;;;8.70;66.80;;;;;;4997048;28;20030;-77
2021/01/08 08:20:22;;;;;;;19.85;11.27;;;8.70;66.70;;;;;;4996929;28;20027;-76
2021/01/08 08:22:50;;;;;;;20.20;11.23;;;8.70;66.90;;;;;;4996738;28;20450;-75
2021/01/08 08:25:30;;;;;;;19.58;11.18;;;8.70;67.10;;;;;;4995167;28;20454;-76
2021/01/08 08:28:00;;;;;;;16.88;10.70;;;8.70;67.10;;;;;;4996357;28;20471;-76
2021/01/08 08:30:27;;;;;;;18.52;10.60;;;8.80;66.90;;;;;;4996304;28;20104;-75
2021/01/08 08:32:54;;;;;;;14.82;10.75;;;8.80;66.90;;;;;;4996236;28;20093;-73
2021/01/08 08:35:21;;;;;;;20.08;12.07;;;8.80;66.70;;;;;;4996258;28;20117;-77
2021/01/08 08:37:53;;;;;;;17.25;10.75;;;8.80;66.90;;;;;;4996230;28;20446;-75
2021/01/08 08:40:29;;;;;;;14.90;10.68;;;8.90;66.90;;;;;;4996103;28;20026;-70
2021/01/08 08:43:00;;;;;;;14.02;10.13;;;8.90;67.00;;;;;;4994921;28;20030;-73
2021/01/08 08:45:33;;;;;;;17.10;10.30;;;8.90;66.80;;;;;;5011212;28;20446;-76
2021/01/08 08:48:05;;;;;;;15.80;10.20;;;8.80;66.80;;;;;;4996475;28;20098;-73
2021/01/08 08:50:40;;;;;;;13.25;9.32;;;8.90;66.90;;;;;;4996061;28;20026;-72
2021/01/08 08:53:11;;;;;;;13.63;9.63;;;8.90;66.80;;;;;;4996317;28;20376;-75
2021/01/08 08:55:36;;;;;;;12.80;8.52;;;8.80;67.50;;;;;;4995684;28;20077;-75
2021/01/08 08:58:12;;;;;;;16.85;9.77;;;8.80;66.80;;;;;;4994430;28;20030;-73
2021/01/08 09:00:44;;;;;;;15.93;9.43;;;8.80;66.90;;;;;;4995490;28;20027;-76
2021/01/08 09:03:24;;;;;;;14.98;8.40;;;8.90;66.80;;;;;;4995427;28;20046;-75
2021/01/08 09:05:52;;;;;;;15.55;9.35;;;9.00;67.00;;;;;;4995190;28;20120;-77
2021/01/08 09:08:24;;;;;;;13.85;8.65;;;9.10;66.90;;;;;;4995125;28;20022;-75
2021/01/08 09:11:41;;;;;;;11.60;8.18;;;9.10;66.30;;;;;;4995227;28;20186;-74
2021/01/08 09:14:13;;;;;;;11.32;8.45;;;9.10;66.50;;;;;;4993419;28;20038;-76
2021/01/08 09:16:42;;;;;;;14.02;8.98;;;9.00;66.60;;;;;;4993349;28;20037;-75
2021/01/08 09:19:11;;;;;;;14.55;8.40;;;9.00;66.90;;;;;;4994020;28;20117;-72
2021/01/08 09:21:48;;;;;;;14.18;9.50;;;9.00;66.90;;;;;;4994868;28;20022;-72
2021/01/08 09:24:27;;;;;;;15.40;9.15;;;9.00;67.10;;;;;;4993387;28;20125;-71
2021/01/08 09:26:59;;;;;;;11.85;8.50;;;9.10;67.10;;;;;;4995009;28;20077;-72
2021/01/08 09:29:29;;;;;;;15.60;8.50;;;9.20;66.90;;;;;;4994785;28;20044;-72
2021/01/08 09:31:56;;;;;;;16.48;8.90;;;9.30;67.00;;;;;;4994803;28;20479;-70
2021/01/08 09:34:23;;;;;;;13.00;8.98;;;9.40;66.80;;;;;;4994690;28;20030;-69
2021/01/08 09:36:50;;;;;;;13.52;7.65;;;9.50;66.60;;;;;;4994752;28;20055;-77
2021/01/08 09:39:17;;;;;;;11.30;7.97;;;9.50;66.50;;;;;;4994678;28;20050;-67
2021/01/08 09:41:44;;;;;;;13.43;9.13;;;9.40;66.30;;;;;;4994527;28;20023;-70
2021/01/08 09:44:14;;;;;;;12.73;8.35;;;9.40;66.50;;;;;;4994379;28;20122;-75
2021/01/08 09:46:59;;;;;;;17.55;7.70;;;9.40;66.60;;;;;;4994571;28;20057;-68
2021/01/08 09:49:26;;;;;;;12.85;8.48;;;9.40;66.80;;;;;;4994070;28;20063;-71
2021/01/08 09:52:01;;;;;;;13.60;8.70;;;9.40;66.60;;;;;;4994432;28;20018;-72
2021/01/08 09:54:51;;;;;;;13.48;8.40;;;9.50;66.70;;;;;;4994205;28;20445;-74
2021/01/08 09:57:28;;;;;;;12.77;8.27;;;9.50;66.50;;;;;;4994235;28;20051;-75
2021/01/08 10:00:02;;;;;;;11.40;7.82;;;9.50;66.50;;;;;;4994415;28;20026;-71
2021/01/08 10:02:42;;;;;;;16.42;8.90;;;9.40;66.30;;;;;;4994044;28;20361;-76
2021/01/08 10:05:23;;;;;;;13.38;9.18;;;9.40;66.50;;;;;;4994312;28;20042;-69
2021/01/08 10:07:49;;;;;;;11.80;8.20;;;9.40;66.40;;;;;;4994400;28;20076;-72
2021/01/08 10:10:16;;;;;;;13.25;7.72;;;9.30;66.50;;;;;;4994055;28;20092;-76
2021/01/08 10:12:49;;;;;;;12.82;8.30;;;9.30;66.70;;;;;;4993881;28;20125;-76
2021/01/08 10:15:16;;;;;;;15.25;8.75;;;9.40;66.80;;;;;;4994234;28;20026;-74
2021/01/08 10:17:48;;;;;;;14.05;8.35;;;9.30;66.50;;;;;;4993890;28;20410;-75
2021/01/08 10:20:19;;;;;;;14.70;8.80;;;9.40;66.60;;;;;;4993836;28;20057;-75
2021/01/08 10:22:49;;;;;;;15.32;8.55;;;9.40;67.00;;;;;;4993823;28;20112;-69
2021/01/08 10:25:32;;;;;;;15.55;9.43;;;9.40;66.80;;;;;;4993813;28;20046;-68
2021/01/08 10:28:15;;;;;;;17.65;8.93;;;9.40;66.70;;;;;;4975986;28;20027;-67
2021/01/08 10:30:42;;;;;;;;;;;9.40;66.70;;;;;;4994308;28;20113;-74
2021/01/08 10:33:09;;;;;;;13.88;8.13;;;9.40;66.70;;;;;;4992480;28;20256;-66
2021/01/08 10:35:35;;;;;;;13.38;8.60;;;9.50;66.80;;;;;;4992666;28;20089;-76
2021/01/08 10:38:01;;;;;;;15.48;8.98;;;9.40;66.60;;;;;;4993540;28;20042;-71
2021/01/08 10:40:27;;;;;;;12.15;8.50;;;9.40;66.60;;;;;;4993967;28;20068;-73
2021/01/08 10:42:53;;;;;;;12.07;7.93;;;9.40;66.60;;;;;;4993607;28;20038;-69
2021/01/08 10:45:19;;;;;;;17.00;8.85;;;9.50;66.40;;;;;;4993795;28;20045;-71
2021/01/08 10:47:45;;;;;;;13.65;8.77;;;9.50;66.30;;;;;;4993798;28;20034;-71
2021/01/08 10:50:12;;;;;;;13.50;8.45;;;9.60;66.10;;;;;;4993522;28;20078;-69
2021/01/08 10:52:38;;;;;;;13.25;8.90;;;9.70;65.80;;;;;;4993875;28;20077;-73
2021/01/08 10:55:05;;;;;;;13.32;9.43;;;9.70;65.80;;;;;;4993712;28;20026;-66
2021/01/08 10:57:31;;;;;;;13.38;8.63;;;9.70;65.60;;;;;;4993276;28;20034;-70
2021/01/08 10:59:57;;;;;;;14.85;8.90;;;9.70;65.70;;;;;;4993586;28;20034;-72
2021/01/08 11:02:23;;;;;;;16.95;9.50;;;9.60;65.80;;;;;;4993589;28;20023;-67
2021/01/08 11:04:48;;;;;;;11.38;8.65;;;9.60;66.20;;;;;;4993246;28;20030;-69
2021/01/08 11:07:14;;;;;;;14.80;8.90;;;9.50;66.30;;;;;;4993276;28;20037;-70
2021/01/08 11:09:40;;;;;;;13.57;7.82;;;9.50;66.30;;;;;;4993764;28;20114;-70
2021/01/08 11:12:06;;;;;;;11.30;8.15;;;9.60;66.50;;;;;;4993385;28;20078;-68
2021/01/08 11:14:32;;;;;;;10.60;7.88;;;9.50;66.30;;;;;;4993599;28;20026;-70
2021/01/08 11:16:58;;;;;;;13.30;9.10;;;9.40;66.30;;;;;;4993401;28;20045;-74
2021/01/08 11:19:24;;;;;;;12.32;8.25;;;9.40;66.50;;;;;;4993226;28;20022;-67
2021/01/08 11:21:54;;;;;;;12.43;8.07;;;9.40;66.40;;;;;;4993360;28;20359;-73
2021/01/08 11:24:19;;;;;;;13.50;8.18;;;9.40;66.50;;;;;;4993149;28;20022;-72
2021/01/08 11:26:45;;;;;;;13.73;8.10;;;9.50;66.80;;;;;;4993382;28;20084;-67
2021/01/08 11:29:11;;;;;;;16.73;8.40;;;9.50;66.50;;;;;;4993008;28;20026;-71
2021/01/08 11:31:37;;;;;;;10.10;7.63;;;9.60;66.60;;;;;;4992788;28;20031;-66
2021/01/08 11:34:04;;;;;;;10.85;8.05;;;9.60;66.50;;;;;;4993183;28;20360;-66
2021/01/08 11:36:30;;;;;;;14.20;7.85;;;9.60;66.40;;;;;;4992927;28;20031;-68
2021/01/08 11:38:56;;;;;;;11.77;8.35;;;9.60;66.40;;;;;;4994153;28;20097;-68
2021/01/08 11:41:22;;;;;;;11.18;7.53;;;9.60;66.50;;;;;;4996861;28;20045;-73
2021/01/08 11:43:49;;;;;;;11.15;7.65;;;9.70;67.20;;;;;;4995573;28;20483;-68
2021/01/08 11:46:24;;;;;;;13.02;8.63;;;9.70;66.20;;;;;;4995299;28;20076;-69
2021/01/08 11:48:52;;;;;;;12.38;7.97;;;9.80;66.20;;;;;;4996909;28;20059;-78
2021/01/08 11:51:21;;;;;;;11.02;7.45;;;9.80;65.90;;;;;;4996947;28;20037;-70
2021/01/08 11:53:48;;;;;;;13.68;8.38;;;9.80;65.70;;;;;;4996582;28;20034;-70
2021/01/08 11:56:14;;;;;;;12.48;7.97;;;9.80;66.00;;;;;;4996699;28;20030;-74
2021/01/08 11:58:42;;;;;;;16.20;8.63;;;9.80;65.80;;;;;;4996883;28;20027;-69
2021/01/08 12:01:09;;;;;;;18.15;8.63;;;9.80;66.00;;;;;;4996500;28;20026;-68
2021/01/08 12:03:36;;;;;;;13.88;8.95;;;9.80;66.00;;;;;;4996297;28;20033;-69
2021/01/08 12:06:03;;;;;;;13.32;8.48;;;9.80;66.20;;;;;;4996263;28;20491;-68
2021/01/08 12:08:31;;;;;;;12.00;8.85;;;9.80;66.30;;;;;;4996521;28;20105;-68
2021/01/08 12:10:57;;;;;;;12.43;8.80;;;9.80;66.20;;;;;;4996263;28;20050;-69
2021/01/08 12:13:23;;;;;;;11.23;8.35;;;9.90;66.40;;;;;;4996181;28;20030;-68
2021/01/08 12:15:49;;;;;;;13.60;8.35;;;9.90;66.30;;;;;;4996218;28;20069;-73
2021/01/08 12:18:15;;;;;;;14.20;9.30;;;10.00;65.20;;;;;;4996765;28;20747;-71
2021/01/08 12:20:41;;;;;;;12.40;9.20;;;9.90;66.00;;;;;;4996202;28;20022;-67
2021/01/08 12:23:07;;;;;;;14.77;8.35;;;10.00;65.00;;;;;;4996260;28;20034;-69
2021/01/08 12:25:37;;;;;;;11.93;8.63;;;10.10;64.90;;;;;;4996295;28;20100;-68
2021/01/08 12:28:04;;;;;;;13.25;8.35;;;10.00;65.00;;;;;;4996161;28;20022;-69
2021/01/08 12:30:30;;;;;;;14.70;9.18;;;10.00;64.90;;;;;;4994570;28;20035;-71
2021/01/08 12:32:56;;;;;;;12.77;8.70;;;10.10;65.10;;;;;;5010956;28;20027;-66
2021/01/08 12:35:22;;;;;;;13.73;8.75;;;10.10;64.90;;;;;;4995993;28;20498;-73
2021/01/08 12:37:49;;;;;;;14.20;8.63;;;10.20;64.80;;;;;;4996018;28;20491;-66
2021/01/08 12:40:15;;;;;;;11.35;7.82;;;10.20;64.50;;;;;;4996159;28;20034;-68
2021/01/08 12:42:41;;;;;;;12.18;7.90;;;10.20;64.20;;;;;;4995970;28;20034;-70
2021/01/08 12:45:08;;;;;;;11.88;8.05;;;10.20;64.40;;;;;;4997088;28;20380;-78
2021/01/08 12:47:36;;;;;;;13.00;8.05;;;10.30;64.40;;;;;;4997408;28;20029;-69